sensor_id;sensor_type;location;lat;lon;timestamp;temperature;humidity
17381;DHT22;8808;52.478;13.378;2022-07-12T00:02:06;15.90;99.90
17381;DHT22;8808;52.478;13.378;2022-07-12T00:04:33;15.90;99.90
17381;DHT22;8808;52.478;13.378;2022-07-12T00:07:01;15.90;99.90
17381;DHT22;8808;52.478;13.378;2022-07-12T00:09:28;16.00;99.90
17381;DHT22;8808;52.478;13.378;2022-07-12T00:11:55;15.90;99.90
17381;DHT22;8808;52.478;13.378;2022-07-12T00:14:22;15.80;99.90
17381;DHT22;8808;52.478;13.378;2022-07-12T00:16:49;15.70;99.90
17381;DHT22;8808;52.478;13.378;2022-07-12T00:19:16;15.80;99.90
17381;DHT22;8808;52.478;13.378;2022-07-12T00:21:43;15.80;99.90
17381;DHT22;8808;52.478;13.378;2022-07-12T00:24:11;15.80;99.90
17381;DHT22;8808;52.478;13.378;2022-07-12T00:26:38;15.80;99.90
17381;DHT22;8808;52.478;13.378;2022-07-12T00:29:05;15.80;99.90
17381;DHT22;8808;52.478;13.378;2022-07-12T00:31:33;15.70;99.90
17381;DHT22;8808;52.478;13.378;2022-07-12T00:34:00;15.70;99.90
17381;DHT22;8808;52.478;13.378;2022-07-12T00:36:26;15.80;99.90
17381;DHT22;8808;52.478;13.378;2022-07-12T00:38:54;15.80;99.90
17381;DHT22;8808;52.478;13.378;2022-07-12T00:41:23;15.70;99.90
17381;DHT22;8808;52.478;13.378;2022-07-12T00:43:50;15.70;99.90
17381;DHT22;8808;52.478;13.378;2022-07-12T00:46:22;15.70;99.90
17381;DHT22;8808;52.478;13.378;2022-07-12T00:48:49;15.70;99.90
17381;DHT22;8808;52.478;13.378;2022-07-12T00:51:17;15.80;99.90
17381;DHT22;8808;52.478;13.378;2022-07-12T00:53:44;15.60;99.90
17381;DHT22;8808;52.478;13.378;2022-07-12T00:58:41;15.60;99.90
17381;DHT22;8808;52.478;13.378;2022-07-12T01:03:44;15.50;99.90
17381;DHT22;8808;52.478;13.378;2022-07-12T01:06:11;15.40;99.90
17381;DHT22;8808;52.478;13.378;2022-07-12T01:08:38;15.40;99.90
17381;DHT22;8808;52.478;13.378;2022-07-12T01:11:06;15.50;99.90
17381;DHT22;8808;52.478;13.378;2022-07-12T01:13:34;15.40;99.90
17381;DHT22;8808;52.478;13.378;2022-07-12T01:16:04;15.40;99.90
17381;DHT22;8808;52.478;13.378;2022-07-12T01:18:33;15.30;99.90
17381;DHT22;8808;52.478;13.378;2022-07-12T01:21:03;15.30;99.90
17381;DHT22;8808;52.478;13.378;2022-07-12T01:23:32;15.40;99.90
17381;DHT22;8808;52.478;13.378;2022-07-12T01:26:00;15.30;99.90
17381;DHT22;8808;52.478;13.378;2022-07-12T01:28:27;15.30;99.90
17381;DHT22;8808;52.478;13.378;2022-07-12T01:30:54;15.30;99.90
17381;DHT22;8808;52.478;13.378;2022-07-12T01:33:21;15.40;99.90
17381;DHT22;8808;52.478;13.378;2022-07-12T01:35:48;15.40;99.90
17381;DHT22;8808;52.478;13.378;2022-07-12T01:38:16;15.40;99.90
17381;DHT22;8808;52.478;13.378;2022-07-12T01:40:44;15.50;99.90
17381;DHT22;8808;52.478;13.378;2022-07-12T01:43:11;15.50;99.90
17381;DHT22;8808;52.478;13.378;2022-07-12T01:45:38;15.50;99.90
17381;DHT22;8808;52.478;13.378;2022-07-12T01:48:06;15.40;99.90
17381;DHT22;8808;52.478;13.378;2022-07-12T01:50:34;15.40;99.90
17381;DHT22;8808;52.478;13.378;2022-07-12T01:53:01;15.10;99.90
17381;DHT22;8808;52.478;13.378;2022-07-12T02:00:27;15.00;99.90
17381;DHT22;8808;52.478;13.378;2022-07-12T02:02:54;14.90;99.90
17381;DHT22;8808;52.478;13.378;2022-07-12T02:05:21;15.00;99.90
17381;DHT22;8808;52.478;13.378;2022-07-12T02:07:49;14.90;99.90
17381;DHT22;8808;52.478;13.378;2022-07-12T02:10:16;15.00;99.90
17381;DHT22;8808;52.478;13.378;2022-07-12T02:12:43;14.80;99.90
17381;DHT22;8808;52.478;13.378;2022-07-12T02:15:12;14.80;99.90
17381;DHT22;8808;52.478;13.378;2022-07-12T02:17:39;14.80;99.90
17381;DHT22;8808;52.478;13.378;2022-07-12T02:20:06;14.80;99.90
17381;DHT22;8808;52.478;13.378;2022-07-12T02:22:36;14.70;99.90
17381;DHT22;8808;52.478;13.378;2022-07-12T02:25:04;14.70;99.90
17381;DHT22;8808;52.478;13.378;2022-07-12T02:27:31;14.70;99.90
17381;DHT22;8808;52.478;13.378;2022-07-12T02:29:58;14.60;99.90
17381;DHT22;8808;52.478;13.378;2022-07-12T02:32:26;14.50;99.90
17381;DHT22;8808;52.478;13.378;2022-07-12T02:34:53;14.60;99.90
17381;DHT22;8808;52.478;13.378;2022-07-12T02:37:20;14.60;99.90
17381;DHT22;8808;52.478;13.378;2022-07-12T02:39:47;14.50;99.90
17381;DHT22;8808;52.478;13.378;2022-07-12T02:42:14;14.50;99.90
17381;DHT22;8808;52.478;13.378;2022-07-12T02:44:40;14.50;99.90
17381;DHT22;8808;52.478;13.378;2022-07-12T02:47:07;14.50;99.90
17381;DHT22;8808;52.478;13.378;2022-07-12T02:49:35;14.50;99.90
17381;DHT22;8808;52.478;13.378;2022-07-12T02:52:03;14.50;99.90
17381;DHT22;8808;52.478;13.378;2022-07-12T02:54:30;14.40;99.90
17381;DHT22;8808;52.478;13.378;2022-07-12T02:56:57;14.40;99.90
17381;DHT22;8808;52.478;13.378;2022-07-12T02:59:24;14.40;99.90
17381;DHT22;8808;52.478;13.378;2022-07-12T03:01:51;14.50;99.90
17381;DHT22;8808;52.478;13.378;2022-07-12T03:04:18;14.60;99.90
17381;DHT22;8808;52.478;13.378;2022-07-12T03:06:46;14.50;99.90
17381;DHT22;8808;52.478;13.378;2022-07-12T03:09:13;14.40;99.90
17381;DHT22;8808;52.478;13.378;2022-07-12T03:11:40;14.40;99.90
17381;DHT22;8808;52.478;13.378;2022-07-12T03:14:07;14.30;99.90
17381;DHT22;8808;52.478;13.378;2022-07-12T03:16:33;14.40;99.90
17381;DHT22;8808;52.478;13.378;2022-07-12T03:19:00;14.30;99.90
17381;DHT22;8808;52.478;13.378;2022-07-12T03:21:27;14.40;99.90
17381;DHT22;8808;52.478;13.378;2022-07-12T03:23:55;14.50;99.90
17381;DHT22;8808;52.478;13.378;2022-07-12T03:26:23;14.40;99.90
17381;DHT22;8808;52.478;13.378;2022-07-12T03:28:50;14.50;99.90
17381;DHT22;8808;52.478;13.378;2022-07-12T03:31:17;14.60;99.90
17381;DHT22;8808;52.478;13.378;2022-07-12T03:33:44;14.80;99.90
17381;DHT22;8808;52.478;13.378;2022-07-12T03:36:10;14.90;99.90
17381;DHT22;8808;52.478;13.378;2022-07-12T03:38:39;14.80;99.90
17381;DHT22;8808;52.478;13.378;2022-07-12T03:41:07;14.90;99.90
17381;DHT22;8808;52.478;13.378;2022-07-12T03:43:36;14.90;99.90
17381;DHT22;8808;52.478;13.378;2022-07-12T03:46:03;15.00;99.90
17381;DHT22;8808;52.478;13.378;2022-07-12T03:48:30;15.00;99.90
17381;DHT22;8808;52.478;13.378;2022-07-12T03:50:57;14.90;99.90
17381;DHT22;8808;52.478;13.378;2022-07-12T03:53:24;14.80;99.90
17381;DHT22;8808;52.478;13.378;2022-07-12T03:56:08;14.90;99.90
17381;DHT22;8808;52.478;13.378;2022-07-12T03:58:55;15.00;99.90
17381;DHT22;8808;52.478;13.378;2022-07-12T04:01:22;15.20;99.90
17381;DHT22;8808;52.478;13.378;2022-07-12T04:03:49;15.40;99.90
17381;DHT22;8808;52.478;13.378;2022-07-12T04:06:16;15.40;99.90
17381;DHT22;8808;52.478;13.378;2022-07-12T04:08:43;15.50;99.90
17381;DHT22;8808;52.478;13.378;2022-07-12T04:11:11;15.60;99.90
17381;DHT22;8808;52.478;13.378;2022-07-12T04:13:38;15.70;99.90
17381;DHT22;8808;52.478;13.378;2022-07-12T04:16:05;15.80;99.90
17381;DHT22;8808;52.478;13.378;2022-07-12T04:18:32;15.90;99.90
17381;DHT22;8808;52.478;13.378;2022-07-12T04:20:59;16.00;99.90
17381;DHT22;8808;52.478;13.378;2022-07-12T04:23:26;16.00;99.90
17381;DHT22;8808;52.478;13.378;2022-07-12T04:25:53;16.10;99.90
17381;DHT22;8808;52.478;13.378;2022-07-12T04:28:21;16.30;99.90
17381;DHT22;8808;52.478;13.378;2022-07-12T04:30:48;16.40;99.90
17381;DHT22;8808;52.478;13.378;2022-07-12T04:33:15;16.50;99.90
17381;DHT22;8808;52.478;13.378;2022-07-12T04:35:42;16.60;99.90
17381;DHT22;8808;52.478;13.378;2022-07-12T04:38:09;16.50;99.90
17381;DHT22;8808;52.478;13.378;2022-07-12T04:40:35;16.50;99.90
17381;DHT22;8808;52.478;13.378;2022-07-12T04:43:03;16.80;99.90
17381;DHT22;8808;52.478;13.378;2022-07-12T04:45:31;16.70;99.90
17381;DHT22;8808;52.478;13.378;2022-07-12T04:47:58;16.90;99.90
17381;DHT22;8808;52.478;13.378;2022-07-12T04:50:25;17.00;99.90
17381;DHT22;8808;52.478;13.378;2022-07-12T04:52:52;17.10;99.90
17381;DHT22;8808;52.478;13.378;2022-07-12T04:55:19;17.10;99.90
17381;DHT22;8808;52.478;13.378;2022-07-12T04:57:46;17.20;99.90
17381;DHT22;8808;52.478;13.378;2022-07-12T05:00:13;17.20;99.90
17381;DHT22;8808;52.478;13.378;2022-07-12T05:02:42;17.30;99.90
17381;DHT22;8808;52.478;13.378;2022-07-12T05:05:09;17.30;99.90
17381;DHT22;8808;52.478;13.378;2022-07-12T05:07:35;17.50;99.90
17381;DHT22;8808;52.478;13.378;2022-07-12T05:10:03;17.40;99.90
17381;DHT22;8808;52.478;13.378;2022-07-12T05:12:30;17.50;99.90
17381;DHT22;8808;52.478;13.378;2022-07-12T05:14:57;17.60;99.90
17381;DHT22;8808;52.478;13.378;2022-07-12T05:17:24;17.70;99.90
17381;DHT22;8808;52.478;13.378;2022-07-12T05:19:52;17.70;99.90
17381;DHT22;8808;52.478;13.378;2022-07-12T05:22:19;18.00;99.90
17381;DHT22;8808;52.478;13.378;2022-07-12T05:24:46;17.90;99.90
17381;DHT22;8808;52.478;13.378;2022-07-12T05:27:13;18.10;99.90
17381;DHT22;8808;52.478;13.378;2022-07-12T05:29:40;18.10;99.90
17381;DHT22;8808;52.478;13.378;2022-07-12T05:32:07;18.20;99.90
17381;DHT22;8808;52.478;13.378;2022-07-12T05:34:34;18.30;99.90
17381;DHT22;8808;52.478;13.378;2022-07-12T05:37:02;18.30;99.90
17381;DHT22;8808;52.478;13.378;2022-07-12T05:39:29;18.30;99.90
17381;DHT22;8808;52.478;13.378;2022-07-12T05:41:56;18.40;99.90
17381;DHT22;8808;52.478;13.378;2022-07-12T05:44:23;18.50;99.90
17381;DHT22;8808;52.478;13.378;2022-07-12T05:46:51;18.60;99.90
17381;DHT22;8808;52.478;13.378;2022-07-12T05:49:18;18.90;99.90
17381;DHT22;8808;52.478;13.378;2022-07-12T05:51:44;18.90;99.90
17381;DHT22;8808;52.478;13.378;2022-07-12T05:54:30;18.90;99.90
17381;DHT22;8808;52.478;13.378;2022-07-12T05:56:58;18.90;99.90
17381;DHT22;8808;52.478;13.378;2022-07-12T05:59:25;19.10;99.90
17381;DHT22;8808;52.478;13.378;2022-07-12T06:01:53;19.20;99.90
17381;DHT22;8808;52.478;13.378;2022-07-12T06:04:20;19.50;99.90
17381;DHT22;8808;52.478;13.378;2022-07-12T06:06:47;19.50;99.90
17381;DHT22;8808;52.478;13.378;2022-07-12T06:09:14;19.40;99.90
17381;DHT22;8808;52.478;13.378;2022-07-12T06:11:42;19.80;99.90
17381;DHT22;8808;52.478;13.378;2022-07-12T06:14:09;19.60;99.90
17381;DHT22;8808;52.478;13.378;2022-07-12T06:16:36;19.70;99.90
17381;DHT22;8808;52.478;13.378;2022-07-12T06:19:02;19.60;99.90
17381;DHT22;8808;52.478;13.378;2022-07-12T06:21:29;19.60;99.90
17381;DHT22;8808;52.478;13.378;2022-07-12T06:23:56;19.70;99.90
17381;DHT22;8808;52.478;13.378;2022-07-12T06:26:23;20.60;99.90
17381;DHT22;8808;52.478;13.378;2022-07-12T06:28:51;20.20;99.90
17381;DHT22;8808;52.478;13.378;2022-07-12T06:31:18;20.00;99.90
17381;DHT22;8808;52.478;13.378;2022-07-12T06:36:12;20.80;99.90
17381;DHT22;8808;52.478;13.378;2022-07-12T06:38:39;21.10;99.90
17381;DHT22;8808;52.478;13.378;2022-07-12T06:41:06;20.90;99.90
17381;DHT22;8808;52.478;13.378;2022-07-12T06:43:33;21.10;99.90
17381;DHT22;8808;52.478;13.378;2022-07-12T06:46:01;20.90;99.90
17381;DHT22;8808;52.478;13.378;2022-07-12T06:48:28;20.80;99.90
17381;DHT22;8808;52.478;13.378;2022-07-12T06:50:55;21.70;99.90
17381;DHT22;8808;52.478;13.378;2022-07-12T06:53:22;21.20;99.90
17381;DHT22;8808;52.478;13.378;2022-07-12T06:55:48;21.50;99.90
17381;DHT22;8808;52.478;13.378;2022-07-12T06:58:16;21.60;99.90
17381;DHT22;8808;52.478;13.378;2022-07-12T07:00:42;21.10;99.90
17381;DHT22;8808;52.478;13.378;2022-07-12T07:03:13;21.00;99.90
17381;DHT22;8808;52.478;13.378;2022-07-12T07:05:40;21.30;99.90
17381;DHT22;8808;52.478;13.378;2022-07-12T07:08:07;21.50;99.90
17381;DHT22;8808;52.478;13.378;2022-07-12T07:10:34;21.40;99.90
17381;DHT22;8808;52.478;13.378;2022-07-12T07:13:01;21.30;99.90
17381;DHT22;8808;52.478;13.378;2022-07-12T07:15:28;21.40;99.90
17381;DHT22;8808;52.478;13.378;2022-07-12T07:17:55;21.50;99.90
17381;DHT22;8808;52.478;13.378;2022-07-12T07:20:24;21.60;99.90
17381;DHT22;8808;52.478;13.378;2022-07-12T07:22:50;21.70;99.90
17381;DHT22;8808;52.478;13.378;2022-07-12T07:25:17;22.00;99.90
17381;DHT22;8808;52.478;13.378;2022-07-12T07:27:44;22.10;99.90
17381;DHT22;8808;52.478;13.378;2022-07-12T07:30:11;21.90;99.90
17381;DHT22;8808;52.478;13.378;2022-07-12T07:32:55;21.70;99.90
17381;DHT22;8808;52.478;13.378;2022-07-12T07:35:24;21.80;99.90
17381;DHT22;8808;52.478;13.378;2022-07-12T07:37:51;22.10;99.90
17381;DHT22;8808;52.478;13.378;2022-07-12T07:40:18;22.20;99.90
17381;DHT22;8808;52.478;13.378;2022-07-12T07:42:45;21.90;99.90
17381;DHT22;8808;52.478;13.378;2022-07-12T07:45:12;22.10;99.90
17381;DHT22;8808;52.478;13.378;2022-07-12T07:47:43;21.80;99.90
17381;DHT22;8808;52.478;13.378;2022-07-12T07:50:10;22.10;99.90
17381;DHT22;8808;52.478;13.378;2022-07-12T07:52:39;22.10;99.30
17381;DHT22;8808;52.478;13.378;2022-07-12T07:55:06;22.00;99.90
17381;DHT22;8808;52.478;13.378;2022-07-12T07:57:33;22.20;99.10
17381;DHT22;8808;52.478;13.378;2022-07-12T08:00:00;22.30;99.90
17381;DHT22;8808;52.478;13.378;2022-07-12T08:02:27;22.60;99.90
17381;DHT22;8808;52.478;13.378;2022-07-12T08:04:54;22.40;97.90
17381;DHT22;8808;52.478;13.378;2022-07-12T08:07:21;22.70;98.60
17381;DHT22;8808;52.478;13.378;2022-07-12T08:09:49;22.90;99.70
17381;DHT22;8808;52.478;13.378;2022-07-12T08:12:16;22.90;99.70
17381;DHT22;8808;52.478;13.378;2022-07-12T08:14:43;22.80;97.90
17381;DHT22;8808;52.478;13.378;2022-07-12T08:17:10;23.10;99.90
17381;DHT22;8808;52.478;13.378;2022-07-12T08:19:37;23.00;97.50
17381;DHT22;8808;52.478;13.378;2022-07-12T08:22:04;23.20;99.90
17381;DHT22;8808;52.478;13.378;2022-07-12T08:24:33;23.20;98.80
17381;DHT22;8808;52.478;13.378;2022-07-12T08:27:01;23.30;99.70
17381;DHT22;8808;52.478;13.378;2022-07-12T08:29:28;23.10;96.80
17381;DHT22;8808;52.478;13.378;2022-07-12T08:31:55;23.40;99.70
17381;DHT22;8808;52.478;13.378;2022-07-12T08:34:22;23.50;99.60
17381;DHT22;8808;52.478;13.378;2022-07-12T08:36:49;23.40;98.60
17381;DHT22;8808;52.478;13.378;2022-07-12T08:39:16;23.50;97.70
17381;DHT22;8808;52.478;13.378;2022-07-12T08:41:43;23.70;98.90
17381;DHT22;8808;52.478;13.378;2022-07-12T08:44:11;23.80;98.30
17381;DHT22;8808;52.478;13.378;2022-07-12T08:46:38;23.90;96.30
17381;DHT22;8808;52.478;13.378;2022-07-12T08:49:06;23.90;97.70
17381;DHT22;8808;52.478;13.378;2022-07-12T08:51:33;24.00;96.20
17381;DHT22;8808;52.478;13.378;2022-07-12T08:54:07;24.10;97.70
17381;DHT22;8808;52.478;13.378;2022-07-12T08:59:19;24.30;92.60
17381;DHT22;8808;52.478;13.378;2022-07-12T09:01:48;24.50;95.00
17381;DHT22;8808;52.478;13.378;2022-07-12T09:04:17;24.60;95.60
17381;DHT22;8808;52.478;13.378;2022-07-12T09:06:44;24.70;94.80
17381;DHT22;8808;52.478;13.378;2022-07-12T09:09:12;24.70;94.80
17381;DHT22;8808;52.478;13.378;2022-07-12T09:11:51;24.60;95.80
17381;DHT22;8808;52.478;13.378;2022-07-12T09:14:20;24.60;91.90
17381;DHT22;8808;52.478;13.378;2022-07-12T09:16:58;24.70;92.20
17381;DHT22;8808;52.478;13.378;2022-07-12T09:19:25;24.80;91.80
17381;DHT22;8808;52.478;13.378;2022-07-12T09:21:53;24.90;93.70
17381;DHT22;8808;52.478;13.378;2022-07-12T09:24:24;24.90;92.00
17381;DHT22;8808;52.478;13.378;2022-07-12T09:26:53;25.10;90.60
17381;DHT22;8808;52.478;13.378;2022-07-12T09:29:23;25.00;92.70
17381;DHT22;8808;52.478;13.378;2022-07-12T09:31:51;24.90;93.70
17381;DHT22;8808;52.478;13.378;2022-07-12T09:34:37;25.00;93.50
17381;DHT22;8808;52.478;13.378;2022-07-12T09:37:23;25.30;90.70
17381;DHT22;8808;52.478;13.378;2022-07-12T09:39:51;25.60;92.50
17381;DHT22;8808;52.478;13.378;2022-07-12T09:42:19;25.30;93.00
17381;DHT22;8808;52.478;13.378;2022-07-12T09:44:47;25.50;91.90
17381;DHT22;8808;52.478;13.378;2022-07-12T09:47:14;25.30;92.90
17381;DHT22;8808;52.478;13.378;2022-07-12T09:49:42;25.30;91.30
17381;DHT22;8808;52.478;13.378;2022-07-12T09:52:11;25.20;92.90
17381;DHT22;8808;52.478;13.378;2022-07-12T09:54:41;25.30;91.70
17381;DHT22;8808;52.478;13.378;2022-07-12T09:57:13;25.00;92.90
17381;DHT22;8808;52.478;13.378;2022-07-12T09:59:46;25.00;92.40
17381;DHT22;8808;52.478;13.378;2022-07-12T10:02:14;25.30;90.40
17381;DHT22;8808;52.478;13.378;2022-07-12T10:04:42;25.60;90.80
17381;DHT22;8808;52.478;13.378;2022-07-12T10:07:10;25.40;91.00
17381;DHT22;8808;52.478;13.378;2022-07-12T10:09:39;25.30;91.90
17381;DHT22;8808;52.478;13.378;2022-07-12T10:12:08;25.00;92.10
17381;DHT22;8808;52.478;13.378;2022-07-12T10:14:36;25.10;91.50
17381;DHT22;8808;52.478;13.378;2022-07-12T10:17:05;25.00;91.80
17381;DHT22;8808;52.478;13.378;2022-07-12T10:19:36;25.10;91.80
17381;DHT22;8808;52.478;13.378;2022-07-12T10:22:04;25.20;88.30
17381;DHT22;8808;52.478;13.378;2022-07-12T10:24:51;25.30;91.40
17381;DHT22;8808;52.478;13.378;2022-07-12T10:27:30;25.20;91.40
17381;DHT22;8808;52.478;13.378;2022-07-12T10:30:13;25.20;88.60
17381;DHT22;8808;52.478;13.378;2022-07-12T10:32:43;25.40;84.90
17381;DHT22;8808;52.478;13.378;2022-07-12T10:35:14;25.20;90.80
17381;DHT22;8808;52.478;13.378;2022-07-12T10:37:42;25.20;90.10
17381;DHT22;8808;52.478;13.378;2022-07-12T10:40:33;25.10;91.90
17381;DHT22;8808;52.478;13.378;2022-07-12T10:43:18;25.20;92.10
17381;DHT22;8808;52.478;13.378;2022-07-12T10:45:46;25.30;91.40
17381;DHT22;8808;52.478;13.378;2022-07-12T10:48:23;25.70;90.00
17381;DHT22;8808;52.478;13.378;2022-07-12T10:50:55;26.00;81.20
17381;DHT22;8808;52.478;13.378;2022-07-12T10:53:31;25.90;90.60
17381;DHT22;8808;52.478;13.378;2022-07-12T10:56:13;25.50;91.30
17381;DHT22;8808;52.478;13.378;2022-07-12T10:58:42;25.40;91.00
17381;DHT22;8808;52.478;13.378;2022-07-12T11:01:10;25.30;92.00
17381;DHT22;8808;52.478;13.378;2022-07-12T11:03:41;25.30;88.90
17381;DHT22;8808;52.478;13.378;2022-07-12T11:06:09;25.30;91.40
17381;DHT22;8808;52.478;13.378;2022-07-12T11:08:54;25.10;91.80
17381;DHT22;8808;52.478;13.378;2022-07-12T11:11:24;25.20;91.30
17381;DHT22;8808;52.478;13.378;2022-07-12T11:13:51;25.30;90.20
17381;DHT22;8808;52.478;13.378;2022-07-12T11:16:18;25.30;90.30
17381;DHT22;8808;52.478;13.378;2022-07-12T11:18:46;25.00;91.30
17381;DHT22;8808;52.478;13.378;2022-07-12T11:21:13;25.00;91.30
17381;DHT22;8808;52.478;13.378;2022-07-12T11:23:40;25.10;91.70
17381;DHT22;8808;52.478;13.378;2022-07-12T11:26:08;25.20;91.50
17381;DHT22;8808;52.478;13.378;2022-07-12T11:28:36;25.60;88.20
17381;DHT22;8808;52.478;13.378;2022-07-12T11:31:05;25.20;89.30
17381;DHT22;8808;52.478;13.378;2022-07-12T11:33:35;25.00;90.60
17381;DHT22;8808;52.478;13.378;2022-07-12T11:36:05;25.00;90.20
17381;DHT22;8808;52.478;13.378;2022-07-12T11:38:33;25.10;91.50
17381;DHT22;8808;52.478;13.378;2022-07-12T11:41:01;25.00;91.80
17381;DHT22;8808;52.478;13.378;2022-07-12T11:43:29;24.90;92.30
17381;DHT22;8808;52.478;13.378;2022-07-12T11:45:56;25.00;89.70
17381;DHT22;8808;52.478;13.378;2022-07-12T11:48:24;24.80;91.70
17381;DHT22;8808;52.478;13.378;2022-07-12T11:50:51;24.90;91.00
17381;DHT22;8808;52.478;13.378;2022-07-12T11:53:21;25.10;91.10
17381;DHT22;8808;52.478;13.378;2022-07-12T11:55:49;25.10;91.30
17381;DHT22;8808;52.478;13.378;2022-07-12T11:58:18;25.00;91.80
17381;DHT22;8808;52.478;13.378;2022-07-12T12:00:46;24.80;91.90
17381;DHT22;8808;52.478;13.378;2022-07-12T12:03:15;24.90;88.20
17381;DHT22;8808;52.478;13.378;2022-07-12T12:05:43;25.00;90.00
17381;DHT22;8808;52.478;13.378;2022-07-12T12:08:12;25.00;91.80
17381;DHT22;8808;52.478;13.378;2022-07-12T12:10:42;25.00;91.60
17381;DHT22;8808;52.478;13.378;2022-07-12T12:13:13;25.30;90.70
17381;DHT22;8808;52.478;13.378;2022-07-12T12:15:48;25.40;90.60
17381;DHT22;8808;52.478;13.378;2022-07-12T12:18:16;25.50;90.20
17381;DHT22;8808;52.478;13.378;2022-07-12T12:20:42;25.10;87.70
17381;DHT22;8808;52.478;13.378;2022-07-12T12:23:15;24.90;91.40
17381;DHT22;8808;52.478;13.378;2022-07-12T12:25:44;25.00;91.40
17381;DHT22;8808;52.478;13.378;2022-07-12T12:28:12;25.00;91.00
17381;DHT22;8808;52.478;13.378;2022-07-12T12:30:49;25.00;92.00
17381;DHT22;8808;52.478;13.378;2022-07-12T12:33:33;25.10;91.80
17381;DHT22;8808;52.478;13.378;2022-07-12T12:36:14;25.00;92.10
17381;DHT22;8808;52.478;13.378;2022-07-12T12:38:41;24.90;92.10
17381;DHT22;8808;52.478;13.378;2022-07-12T12:41:10;24.80;92.30
17381;DHT22;8808;52.478;13.378;2022-07-12T12:43:37;25.00;91.70
17381;DHT22;8808;52.478;13.378;2022-07-12T12:46:05;25.10;91.60
17381;DHT22;8808;52.478;13.378;2022-07-12T12:48:33;25.10;91.80
17381;DHT22;8808;52.478;13.378;2022-07-12T12:51:05;25.10;89.20
17381;DHT22;8808;52.478;13.378;2022-07-12T12:53:34;25.10;91.10
17381;DHT22;8808;52.478;13.378;2022-07-12T12:56:05;25.00;92.00
17381;DHT22;8808;52.478;13.378;2022-07-12T12:58:36;25.10;91.90
17381;DHT22;8808;52.478;13.378;2022-07-12T13:01:04;25.10;91.50
17381;DHT22;8808;52.478;13.378;2022-07-12T13:03:31;25.20;90.90
17381;DHT22;8808;52.478;13.378;2022-07-12T13:05:58;25.10;89.80
17381;DHT22;8808;52.478;13.378;2022-07-12T13:08:27;25.80;87.20
17381;DHT22;8808;52.478;13.378;2022-07-12T13:10:54;25.40;88.80
17381;DHT22;8808;52.478;13.378;2022-07-12T13:13:40;25.40;91.00
17381;DHT22;8808;52.478;13.378;2022-07-12T13:16:07;25.90;84.70
17381;DHT22;8808;52.478;13.378;2022-07-12T13:18:34;25.60;90.50
17381;DHT22;8808;52.478;13.378;2022-07-12T13:21:01;25.00;91.20
17381;DHT22;8808;52.478;13.378;2022-07-12T13:23:28;24.90;90.70
17381;DHT22;8808;52.478;13.378;2022-07-12T13:25:55;24.90;89.50
17381;DHT22;8808;52.478;13.378;2022-07-12T13:28:22;24.80;90.10
17381;DHT22;8808;52.478;13.378;2022-07-12T13:30:50;24.80;90.70
17381;DHT22;8808;52.478;13.378;2022-07-12T13:33:20;25.00;89.00
17381;DHT22;8808;52.478;13.378;2022-07-12T13:35:47;25.00;90.40
17381;DHT22;8808;52.478;13.378;2022-07-12T13:38:14;24.80;90.70
17381;DHT22;8808;52.478;13.378;2022-07-12T13:40:41;24.80;90.70
17381;DHT22;8808;52.478;13.378;2022-07-12T13:43:08;24.80;90.90
17381;DHT22;8808;52.478;13.378;2022-07-12T13:45:35;24.70;91.30
17381;DHT22;8808;52.478;13.378;2022-07-12T13:48:04;25.10;86.10
17381;DHT22;8808;52.478;13.378;2022-07-12T13:50:31;25.10;87.20
17381;DHT22;8808;52.478;13.378;2022-07-12T13:52:58;25.30;90.10
17381;DHT22;8808;52.478;13.378;2022-07-12T13:55:25;24.90;90.90
17381;DHT22;8808;52.478;13.378;2022-07-12T13:57:53;25.30;89.70
17381;DHT22;8808;52.478;13.378;2022-07-12T14:00:20;25.00;88.60
17381;DHT22;8808;52.478;13.378;2022-07-12T14:02:48;24.90;91.00
17381;DHT22;8808;52.478;13.378;2022-07-12T14:05:17;24.80;90.90
17381;DHT22;8808;52.478;13.378;2022-07-12T14:07:46;24.80;90.80
17381;DHT22;8808;52.478;13.378;2022-07-12T14:10:13;25.00;90.60
17381;DHT22;8808;52.478;13.378;2022-07-12T14:12:40;25.00;89.80
17381;DHT22;8808;52.478;13.378;2022-07-12T14:15:08;25.00;88.90
17381;DHT22;8808;52.478;13.378;2022-07-12T14:17:46;24.80;91.00
17381;DHT22;8808;52.478;13.378;2022-07-12T14:20:18;24.90;90.20
17381;DHT22;8808;52.478;13.378;2022-07-12T14:22:47;24.80;91.20
17381;DHT22;8808;52.478;13.378;2022-07-12T14:25:14;24.80;91.30
17381;DHT22;8808;52.478;13.378;2022-07-12T14:27:42;25.10;87.00
17381;DHT22;8808;52.478;13.378;2022-07-12T14:30:11;25.00;90.80
17381;DHT22;8808;52.478;13.378;2022-07-12T14:32:39;25.00;91.00
17381;DHT22;8808;52.478;13.378;2022-07-12T14:35:07;24.90;89.50
17381;DHT22;8808;52.478;13.378;2022-07-12T14:37:36;24.80;90.30
17381;DHT22;8808;52.478;13.378;2022-07-12T14:40:04;24.70;91.50
17381;DHT22;8808;52.478;13.378;2022-07-12T14:42:31;24.80;90.20
17381;DHT22;8808;52.478;13.378;2022-07-12T14:44:58;24.90;90.60
17381;DHT22;8808;52.478;13.378;2022-07-12T14:47:26;24.80;90.00
17381;DHT22;8808;52.478;13.378;2022-07-12T14:49:53;24.90;91.20
17381;DHT22;8808;52.478;13.378;2022-07-12T14:52:20;24.80;91.50
17381;DHT22;8808;52.478;13.378;2022-07-12T14:54:49;24.90;86.80
17381;DHT22;8808;52.478;13.378;2022-07-12T14:57:16;25.00;90.80
17381;DHT22;8808;52.478;13.378;2022-07-12T14:59:43;24.70;91.60
17381;DHT22;8808;52.478;13.378;2022-07-12T15:02:10;24.60;91.60
17381;DHT22;8808;52.478;13.378;2022-07-12T15:04:37;24.60;91.30
17381;DHT22;8808;52.478;13.378;2022-07-12T15:07:04;24.80;90.20
17381;DHT22;8808;52.478;13.378;2022-07-12T15:09:31;24.90;90.40
17381;DHT22;8808;52.478;13.378;2022-07-12T15:12:00;24.60;91.50
17381;DHT22;8808;52.478;13.378;2022-07-12T15:14:27;24.60;91.50
17381;DHT22;8808;52.478;13.378;2022-07-12T15:16:53;24.70;91.00
17381;DHT22;8808;52.478;13.378;2022-07-12T15:19:20;24.60;91.10
17381;DHT22;8808;52.478;13.378;2022-07-12T15:21:47;24.60;91.90
17381;DHT22;8808;52.478;13.378;2022-07-12T15:24:14;24.80;90.90
17381;DHT22;8808;52.478;13.378;2022-07-12T15:26:41;24.50;90.90
17381;DHT22;8808;52.478;13.378;2022-07-12T15:29:09;24.60;89.80
17381;DHT22;8808;52.478;13.378;2022-07-12T15:31:36;24.80;89.10
17381;DHT22;8808;52.478;13.378;2022-07-12T15:34:03;24.90;90.00
17381;DHT22;8808;52.478;13.378;2022-07-12T15:36:30;24.40;90.70
17381;DHT22;8808;52.478;13.378;2022-07-12T15:38:57;24.40;90.70
17381;DHT22;8808;52.478;13.378;2022-07-12T15:41:24;24.30;90.40
17381;DHT22;8808;52.478;13.378;2022-07-12T15:43:51;24.20;90.90
17381;DHT22;8808;52.478;13.378;2022-07-12T15:46:19;24.20;91.00
17381;DHT22;8808;52.478;13.378;2022-07-12T15:48:46;24.20;90.60
17381;DHT22;8808;52.478;13.378;2022-07-12T15:51:13;24.30;90.70
17381;DHT22;8808;52.478;13.378;2022-07-12T15:53:40;24.40;90.60